Terminal Aerodrome Forecast
Issued by NWS

Home | Current Version | Previous Version | Text Only | Print | Product List | Glossary On
Versions: 1 2 3 4 5 6 7 8 9 10 11 12 13 14 15 16 17 18
000
FTUS43 KDLH 010900 AAC
TAFBRD
TAF AMD
KBRD 010928Z 0109/0206 33003KT 3SM BR SKC
      TEMPO 0109/0111 1/2SM FG
     FM011300 35006KT P6SM SCT060
     FM011900 01008KT P6SM BKN050
     FM020000 VRB05KT P6SM SKC=

USA.gov is the U.S. government's official web portal to all federal, state and local government web resources and services.